熊本市, 日本

2014年10月23日 16時54分 (GMT +0900)
Kumamoto | Change Station
CLOSE
Current Station
機場
Location: Kumamoto,
海拔: 643 ft
附近的氣象站

海拔 643 ft 32.84 °N, 130.86 °E | Updated 54 minutes ago

Partly Cloudy
局部有雲
70 °F
感覺像 70 °F
6
風 變化 風 來自 西北偏西

今日
高 -- | 低 -- °F
--% 降水機率
昨天
高 -- | 低 -- °F
Precip. -- 英寸
6:26 AM 5:35 PM
殘月, 0% visible
氣壓 30.01 英寸
能見度 6.2 英里
多雲 少數 4000 ft
露點 50 °F
濕度 49%
降雨量 0.00 英寸
積雪深度 不適用。
紫外線 1 / 12
花粉 不適用。
空氣質素 不適用。
Flu Activity 不適用。
METAR RJFT 230700Z 30005KT 260V350 9999 FEW040 21/10 Q1016

More Conditions Fewer Conditions

氣壓 30.01 英寸
能見度 6.2 英里
多雲 少數 4000 ft
露點 50 °F
濕度 49%
降雨量 0.00 英寸
積雪深度 不適用。
紫外線 1 / 12
花粉 不適用。
空氣質素 不適用。
Flu Activity 不適用。
METAR RJFT 230700Z 30005KT 260V350 9999 FEW040 21/10 Q1016

More Conditions Fewer Conditions

10-Day Weather Forecast

Almanac

天文

Oct. 23, 2014 昇起 降落
實際時間 06:26 JST 17:35 JST
民用曙暮光 06:01 JST 18:00 JST
航海曙暮光 05:32 JST 18:28 JST
天文學微明 05:03 JST 18:57 JST
月亮 05:33 JST 17:13 JST
可見光的長度 11h 58m
白晝時間
11h 08m
Tomorrow will be 1m 52s shorter.
殘月, 0% of the Moon is Illuminated
今日
殘月
10月 23
10月 30
第一季
11月 6
滿月
11月 14
第四季

昨天之最

國家高溫 國家低溫

Community

WunderPhotos

Upload Photos

1,764,194 照片已上傳!

Nearby

積雪量

Not available.

地震活動

城市 距離 時間和日期
附近沒有最近發生的地震活動。
顯示的最小幅度是2.5。

沿海水溫

地點 溫度
無任何天氣監測站報告

附近的氣象站